Time;durP1;ratioP1;P1;durP2;ratioP2;P2;SDS_P1;SDS_P2;PMS_P1;PMS_P2;Temp;Humidity;BMP_temperature;BMP_pressure;BME280_temperature;BME280_humidity;BME280_pressure;Samples;Min_cycle;Max_cycle;Signal;HPM_P1;HPM_P2
2022/01/13 00:01:16;;;;;;;69.10;24.83;;;;;;;1.92;100.00;104097.19;5119298;28;20130;-63
2022/01/13 00:03:42;;;;;;;79.18;22.25;;;;;;;1.95;100.00;104095.75;5119064;28;20031;-64
2022/01/13 00:06:07;;;;;;;71.65;22.40;;;;;;;1.92;100.00;104085.19;5118742;28;20024;-65
2022/01/13 00:08:32;;;;;;;92.60;23.60;;;;;;;1.88;100.00;104090.03;5119303;28;20039;-64
2022/01/13 00:10:58;;;;;;;65.88;23.45;;;;;;;1.91;100.00;104098.88;5119243;28;20080;-64
2022/01/13 00:13:30;;;;;;;65.80;24.25;;;;;;;1.96;100.00;104110.47;5118733;28;20032;-65
2022/01/13 00:18:40;;;;;;;71.53;24.65;;;;;;;1.99;100.00;104107.22;5118417;28;20043;-64
2022/01/13 00:21:16;;;;;;;66.72;23.75;;;;;;;1.99;100.00;104105.53;5118699;28;20119;-62
2022/01/13 00:23:47;;;;;;;60.00;23.27;;;;;;;2.03;100.00;104111.81;5118776;28;20339;-64
2022/01/13 00:26:19;;;;;;;65.45;23.25;;;;;;;1.98;100.00;104100.25;5118714;28;20031;-64
2022/01/13 00:28:47;;;;;;;74.88;22.75;;;;;;;1.89;100.00;104102.16;5118387;28;20034;-65
2022/01/13 00:31:16;;;;;;;76.07;22.50;;;;;;;1.92;100.00;104111.00;5118803;28;20114;-65
2022/01/13 00:33:44;;;;;;;61.10;21.75;;;;;;;1.85;100.00;104105.31;5101176;28;20418;-64
2022/01/13 00:36:10;;;;;;;61.25;22.10;;;;;;;1.84;100.00;104103.50;5118500;28;20036;-64
2022/01/13 00:38:35;;;;;;;88.43;22.42;;;;;;;1.83;100.00;104104.28;5118215;28;20028;-64
2022/01/13 00:41:01;;;;;;;79.50;22.27;;;;;;;1.73;100.00;104106.16;5118484;28;20115;-66
2022/01/13 00:43:26;;;;;;;57.28;22.08;;;;;;;1.75;100.00;104104.59;5118371;28;20340;-63
2022/01/13 00:45:52;;;;;;;85.55;22.88;;;;;;;1.79;100.00;104105.72;5118642;28;20028;-64
2022/01/13 00:48:18;;;;;;;59.45;22.80;;;;;;;1.80;100.00;104101.47;5118138;28;20103;-63
2022/01/13 00:50:44;;;;;;;62.88;22.70;;;;;;;1.81;100.00;104096.41;5117183;28;20177;-64
2022/01/13 00:53:09;;;;;;;65.05;23.42;;;;;;;1.82;100.00;104099.91;5117624;28;20449;-65
2022/01/13 00:55:48;;;;;;;61.95;23.02;;;;;;;1.82;100.00;104098.22;5118205;28;20106;-63
2022/01/13 00:58:14;;;;;;;57.85;22.92;;;;;;;1.85;100.00;104101.03;5118304;28;20107;-63
2022/01/13 01:00:40;;;;;;;69.72;21.52;;;;;;;1.85;100.00;104102.72;5117762;28;20430;-63
2022/01/13 01:03:07;;;;;;;62.03;22.00;;;;;;;1.84;100.00;104091.50;5117662;28;20043;-63
2022/01/13 01:05:34;;;;;;;56.45;21.38;;;;;;;1.81;100.00;104086.09;5117514;28;20035;-66
2022/01/13 01:08:00;;;;;;;50.85;20.38;;;;;;;1.72;100.00;104080.25;5117788;28;20031;-63
2022/01/13 01:10:25;;;;;;;55.78;20.30;;;;;;;1.78;100.00;104097.88;5117051;28;20059;-62
2022/01/13 01:12:50;;;;;;;52.53;20.90;;;;;;;1.76;100.00;104095.16;5117163;28;20067;-64
2022/01/13 01:15:15;;;;;;;56.50;20.75;;;;;;;1.67;100.00;104076.44;5117914;28;20040;-64
2022/01/13 01:17:47;;;;;;;49.05;20.38;;;;;;;1.70;100.00;104087.88;5117480;28;20393;-64
2022/01/13 01:20:13;;;;;;;52.80;20.27;;;;;;;1.71;100.00;104083.63;5117774;28;20027;-65
2022/01/13 01:23:12;;;;;;;58.50;19.55;;;;;;;1.71;100.00;104089.69;5117539;28;20028;-63
2022/01/13 01:27:55;;;;;;;46.72;19.25;;;;;;;1.61;100.00;104082.03;5117322;28;20063;-65
2022/01/13 01:30:35;;;;;;;46.63;18.48;;;;;;;1.63;100.00;104089.88;5117624;28;20115;-65
2022/01/13 01:33:02;;;;;;;64.38;20.00;;;;;;;1.62;100.00;104095.81;5117564;28;20035;-65
2022/01/13 01:35:28;;;;;;;52.95;19.70;;;;;;;1.61;100.00;104096.59;5117337;28;20061;-63
2022/01/13 01:37:54;;;;;;;51.80;19.63;;;;;;;1.57;100.00;104100.63;5117161;28;20023;-64
2022/01/13 01:40:20;;;;;;;45.17;20.20;;;;;;;1.59;100.00;104101.66;5117134;28;20035;-64
2022/01/13 01:42:46;;;;;;;60.50;19.45;;;;;;;1.58;100.00;104091.22;5117521;28;20063;-65
2022/01/13 01:45:13;;;;;;;44.08;17.60;;;;;;;1.58;100.00;104088.63;5117362;28;20372;-65
2022/01/13 01:47:39;;;;;;;42.17;17.30;;;;;;;1.61;100.00;104091.44;5117132;28;20031;-65
2022/01/13 01:50:18;;;;;;;42.28;18.05;;;;;;;1.57;100.00;104085.16;5116926;28;20419;-64
2022/01/13 01:52:49;;;;;;;48.13;18.65;;;;;;;1.58;100.00;104079.19;5116973;28;20123;-63
2022/01/13 01:55:15;;;;;;;49.88;16.65;;;;;;;1.59;100.00;104078.41;5117071;28;20036;-64
2022/01/13 01:57:46;;;;;;;46.33;16.35;;;;;;;1.51;100.00;104081.22;5116977;28;20111;-64
2022/01/13 02:00:14;;;;;;;42.45;16.15;;;;;;;1.50;100.00;104067.44;5116999;28;20023;-66
2022/01/13 02:02:42;;;;;;;41.25;16.48;;;;;;;1.45;100.00;104076.50;5116550;28;20076;-66
2022/01/13 02:05:08;;;;;;;45.72;16.55;;;;;;;1.47;100.00;104069.78;5116415;28;20020;-65
2022/01/13 02:07:34;;;;;;;34.88;15.70;;;;;;;1.35;100.00;104058.53;5116700;28;20031;-65
2022/01/13 02:09:59;;;;;;;45.78;15.52;;;;;;;1.41;100.00;104066.72;5116993;28;20096;-64
2022/01/13 02:12:44;;;;;;;35.83;15.80;;;;;;;1.45;100.00;104060.13;5116592;28;20046;-65
2022/01/13 02:15:33;;;;;;;38.67;16.25;;;;;;;1.47;100.00;104081.78;5116787;28;20070;-65
2022/01/13 02:18:01;;;;;;;38.20;15.70;;;;;;;1.46;100.00;104080.88;5116529;28;20023;-64
2022/01/13 02:20:50;;;;;;;38.17;15.88;;;;;;;1.55;100.00;104080.69;5116383;28;20346;-62
2022/01/13 02:23:37;;;;;;;53.08;15.95;;;;;;;1.53;100.00;104085.72;5116709;28;20027;-63
2022/01/13 02:26:05;;;;;;;41.17;14.73;;;;;;;1.54;100.00;104095.28;5116027;28;20422;-64
2022/01/13 02:28:30;;;;;;;37.70;15.77;;;;;;;1.54;100.00;104086.63;5116177;28;20031;-64
2022/01/13 02:30:56;;;;;;;38.53;16.38;;;;;;;1.62;100.00;104098.41;5116031;28;20346;-64
2022/01/13 02:33:21;;;;;;;47.45;15.50;;;;;;;1.58;100.00;104092.09;5116201;28;20106;-65
2022/01/13 02:35:47;;;;;;;46.85;16.30;;;;;;;1.57;100.00;104084.25;5116258;28;20035;-66
2022/01/13 02:38:12;;;;;;;40.72;15.48;;;;;;;1.52;100.00;104085.59;5116489;28;20039;-63
2022/01/13 02:40:39;;;;;;;42.03;15.25;;;;;;;1.51;100.00;104079.53;5116095;28;20376;-63
2022/01/13 02:43:05;;;;;;;35.75;16.20;;;;;;;1.55;100.00;104076.41;5116006;28;20042;-66
2022/01/13 02:45:35;;;;;;;42.58;16.10;;;;;;;1.47;100.00;104067.19;5115541;28;20485;-64
2022/01/13 02:50:44;;;;;;;40.70;14.85;;;;;;;1.65;100.00;104080.56;5115702;28;20126;-65
2022/01/13 02:53:10;;;;;;;55.55;16.02;;;;;;;1.57;100.00;104082.56;5115664;28;20114;-64
2022/01/13 02:55:35;;;;;;;40.80;15.65;;;;;;;1.52;100.00;104083.94;5120185;28;20032;-63
2022/01/13 02:58:01;;;;;;;47.30;16.10;;;;;;;1.48;100.00;104075.81;5117689;28;20024;-64
2022/01/13 03:00:26;;;;;;;55.30;15.65;;;;;;;1.56;100.00;104083.34;5115833;28;20316;-65
2022/01/13 03:02:52;;;;;;;50.03;16.77;;;;;;;1.47;100.00;104084.34;5115993;28;20114;-65
2022/01/13 03:05:17;;;;;;;42.67;15.68;;;;;;;1.49;100.00;104081.09;5115474;28;20035;-65
2022/01/13 03:07:43;;;;;;;44.75;15.45;;;;;;;1.48;100.00;104087.06;5115510;28;20036;-64
2022/01/13 03:10:10;;;;;;;62.67;17.00;;;;;;;1.45;100.00;104080.75;5115639;28;20027;-65
2022/01/13 03:12:39;;;;;;;46.67;16.33;;;;;;;1.38;100.00;104076.84;5115709;28;20053;-66
2022/01/13 03:15:04;;;;;;;59.38;17.33;;;;;;;1.48;100.00;104078.41;5115039;28;20074;-66
2022/01/13 03:17:30;;;;;;;47.70;16.65;;;;;;;1.43;100.00;104065.16;5115839;28;20031;-65
2022/01/13 03:19:55;;;;;;;67.97;18.10;;;;;;;1.40;100.00;104054.59;5115413;28;20065;-67
2022/01/13 03:22:20;;;;;;;52.50;17.58;;;;;;;1.35;100.00;104043.94;5115682;28;20032;-65
2022/01/13 03:24:45;;;;;;;46.53;16.92;;;;;;;1.49;100.00;104067.31;5115496;28;20319;-66
2022/01/13 03:27:18;;;;;;;46.90;17.83;;;;;;;1.44;100.00;104042.81;5115606;28;20031;-65
2022/01/13 03:29:44;;;;;;;49.65;18.52;;;;;;;1.54;100.00;104058.25;5115378;28;20115;-63
2022/01/13 03:32:09;;;;;;;45.65;17.80;;;;;;;1.54;100.00;104053.97;5115588;28;20135;-65
2022/01/13 03:34:34;;;;;;;57.53;19.40;;;;;;;1.48;100.00;104053.50;5115713;28;20035;-64
2022/01/13 03:37:00;;;;;;;52.40;19.98;;;;;;;1.57;100.00;104067.09;5115179;28;20031;-65
2022/01/13 03:39:25;;;;;;;56.13;19.13;;;;;;;1.54;100.00;104066.88;5115523;28;20020;-65
2022/01/13 03:41:50;;;;;;;69.15;20.45;;;;;;;1.51;100.00;104056.31;5115007;28;20046;-66
2022/01/13 03:44:27;;;;;;;55.70;19.80;;;;;;;1.58;100.00;104055.06;5115376;28;20027;-66
2022/01/13 03:46:52;;;;;;;72.47;19.95;;;;;;;1.58;100.00;104058.56;5115477;28;20024;-65
2022/01/13 03:49:17;;;;;;;61.47;20.15;;;;;;;1.51;100.00;104065.75;5115127;28;20038;-65
2022/01/13 03:52:04;;;;;;;68.30;20.33;;;;;;;1.60;100.00;104064.72;5115102;28;20381;-64
2022/01/13 03:54:32;;;;;;;88.32;21.17;;;;;;;1.52;100.00;104060.69;5115210;28;20028;-65
2022/01/13 03:57:35;;;;;;;64.57;21.13;;;;;;;1.54;100.00;104053.06;5115211;28;20024;-66
2022/01/13 04:01:13;;;;;;;69.13;20.60;;;;;;;1.58;100.00;104063.72;5115192;28;20355;-65
2022/01/13 04:03:38;;;;;;;72.70;20.40;;;;;;;1.56;100.00;104051.50;5036248;28;20072;-65
2022/01/13 04:06:32;;;;;;;63.53;19.65;;;;;;;1.67;100.00;104059.25;5114792;28;20063;-64
2022/01/13 04:08:58;;;;;;;61.53;21.02;;;;;;;1.53;100.00;104054.75;5114876;28;20342;-64
2022/01/13 04:11:27;;;;;;;68.63;20.67;;;;;;;1.55;100.00;104049.72;5115255;28;20031;-64
2022/01/13 04:14:00;;;;;;;60.47;21.55;;;;;;;1.57;100.00;104058.44;5114990;28;20047;-66
2022/01/13 04:16:29;;;;;;;70.70;20.90;;;;;;;1.43;100.00;104052.25;5114868;28;20054;-64
2022/01/13 04:19:00;;;;;;;57.17;21.63;;;;;;;1.40;100.00;104050.34;5115085;28;20027;-64
2022/01/13 04:21:25;;;;;;;67.97;22.25;;;;;;;1.41;100.00;104051.22;5114688;28;20362;-64
2022/01/13 04:23:56;;;;;;;71.82;22.33;;;;;;;1.36;100.00;104047.44;5114883;28;20122;-65
2022/01/13 04:26:27;;;;;;;65.18;22.83;;;;;;;1.40;100.00;104049.44;5115250;28;20098;-65
2022/01/13 04:29:01;;;;;;;73.13;23.95;;;;;;;1.42;100.00;104053.03;5118977;28;20031;-63
2022/01/13 04:31:26;;;;;;;67.15;23.27;;;;;;;1.43;100.00;104059.09;5118674;28;20438;-65
2022/01/13 04:33:51;;;;;;;66.68;23.13;;;;;;;1.45;100.00;104042.94;5118534;28;20029;-64
2022/01/13 04:36:16;;;;;;;67.57;22.77;;;;;;;1.49;100.00;104055.31;5118644;28;20043;-65
2022/01/13 04:38:42;;;;;;;82.57;23.40;;;;;;;1.52;100.00;104050.38;5118613;28;20029;-64
2022/01/13 04:41:07;;;;;;;72.38;23.08;;;;;;;1.54;100.00;104035.00;5118464;28;20392;-64
2022/01/13 04:43:32;;;;;;;75.82;23.70;;;;;;;1.53;100.00;104038.38;5118421;28;20031;-67
2022/01/13 04:45:58;;;;;;;91.85;24.85;;;;;;;1.46;100.00;104039.59;5118220;28;20045;-65
2022/01/13 04:48:24;;;;;;;74.05;21.92;;;;;;;1.54;100.00;104038.50;5118493;28;20045;-65
2022/01/13 04:50:50;;;;;;;89.20;24.63;;;;;;;1.50;100.00;104048.47;5118137;28;20032;-64
2022/01/13 04:53:15;;;;;;;81.18;22.13;;;;;;;1.55;100.00;104039.38;5118172;28;20033;-64
2022/01/13 04:55:49;;;;;;;83.75;23.02;;;;;;;1.44;100.00;104043.72;5118104;28;20027;-62
2022/01/13 04:58:15;;;;;;;87.22;22.75;;;;;;;1.32;100.00;104029.91;5117902;28;20091;-63
2022/01/13 05:00:41;;;;;;;82.78;22.35;;;;;;;1.40;100.00;104049.44;5118188;28;20107;-65
2022/01/13 05:03:06;;;;;;;69.97;22.33;;;;;;;1.30;100.00;104037.53;5117830;28;20031;-64
2022/01/13 05:05:31;;;;;;;84.15;21.88;;;;;;;1.39;100.00;104033.06;5117983;28;20084;-63
2022/01/13 05:07:56;;;;;;;98.70;23.88;;;;;;;1.37;100.00;104044.06;5117904;28;20327;-64
2022/01/13 05:10:22;;;;;;;91.72;24.05;;;;;;;1.38;100.00;104041.59;5117972;28;20327;-63
2022/01/13 05:12:53;;;;;;;91.57;22.88;;;;;;;1.38;100.00;104032.97;5117877;28;20042;-66
2022/01/13 05:15:23;;;;;;;76.18;23.85;;;;;;;1.30;100.00;104034.97;5118266;28;20083;-66
2022/01/13 05:20:37;;;;;;;79.88;23.70;;;;;;;1.28;100.00;104038.19;5117740;28;20118;-64
2022/01/13 05:23:04;;;;;;;89.20;25.13;;;;;;;1.24;100.00;104038.75;5117589;28;20027;-63
2022/01/13 05:25:29;;;;;;;83.30;24.25;;;;;;;1.33;100.00;104045.50;5117493;28;20115;-65
2022/01/13 05:27:54;;;;;;;77.78;21.40;;;;;;;1.37;100.00;104032.06;5117807;28;20446;-64
2022/01/13 05:30:20;;;;;;;97.82;21.65;;;;;;;1.39;100.00;104033.06;5117128;28;20035;-64
2022/01/13 05:32:46;;;;;;;109.45;25.40;;;;;;;1.32;100.00;104040.25;5117444;28;20110;-65
2022/01/13 05:35:12;;;;;;;98.10;23.77;;;;;;;1.29;100.00;104040.91;5117369;28;20036;-64
2022/01/13 05:37:37;;;;;;;105.68;23.58;;;;;;;1.35;100.00;104035.31;5116966;28;20112;-65
2022/01/13 05:40:03;;;;;;;99.70;23.60;;;;;;;1.28;100.00;104041.69;5117859;28;20085;-65
2022/01/13 05:42:28;;;;;;;85.70;24.67;;;;;;;1.28;100.00;104043.34;5117179;28;20495;-66
2022/01/13 05:44:55;;;;;;;99.38;23.75;;;;;;;1.33;100.00;104042.94;5117297;28;20392;-62
2022/01/13 05:47:21;;;;;;;99.75;24.75;;;;;;;1.33;100.00;104045.50;5117104;28;20035;-65
2022/01/13 05:49:47;;;;;;;89.32;25.20;;;;;;;1.32;100.00;104047.97;5117023;28;20081;-65
2022/01/13 05:52:13;;;;;;;97.60;25.42;;;;;;;1.33;100.00;104042.03;5116886;28;20037;-64
2022/01/13 05:54:39;;;;;;;89.05;24.67;;;;;;;1.30;100.00;104045.28;5117266;28;20351;-65
2022/01/13 05:57:05;;;;;;;84.05;26.45;;;;;;;1.31;100.00;104048.75;5116812;28;20103;-64
2022/01/13 05:59:31;;;;;;;88.80;25.92;;;;;;;1.29;100.00;104042.56;5116946;28;20174;-64
2022/01/13 06:01:57;;;;;;;91.38;25.92;;;;;;;1.45;100.00;104053.28;5113499;28;20064;-64
2022/01/13 06:04:23;;;;;;;91.47;24.83;;;;;;;1.32;100.00;104035.06;5105424;28;20210;-67
2022/01/13 06:06:48;;;;;;;86.60;26.52;;;;;;;1.40;100.00;104046.84;5113244;28;20107;-64
2022/01/13 06:09:13;;;;;;;101.07;24.45;;;;;;;1.33;100.00;104042.03;5116473;28;20027;-63
2022/01/13 06:11:51;;;;;;;82.85;25.02;;;;;;;1.35;100.00;104037.91;5116538;28;20430;-65
2022/01/13 06:14:16;;;;;;;98.05;25.85;;;;;;;1.33;100.00;104042.94;5116409;28;20126;-64
2022/01/13 06:16:42;;;;;;;113.60;25.10;;;;;;;1.33;100.00;104037.78;5116425;28;20114;-62
2022/01/13 06:19:07;;;;;;;124.05;25.77;;;;;;;1.30;100.00;104036.63;5116351;28;20089;-61
2022/01/13 06:21:32;;;;;;;141.18;25.05;;;;;;;1.29;100.00;104046.06;5116934;28;20032;-63
2022/01/13 06:23:57;;;;;;;131.30;26.02;;;;;;;1.24;100.00;104025.84;5117381;28;20023;-63
2022/01/13 06:26:23;;;;;;;127.03;27.33;;;;;;;1.21;100.00;104023.06;5120157;28;20350;-64
2022/01/13 06:28:48;;;;;;;96.07;27.23;;;;;;;1.27;100.00;104026.09;5118002;28;20114;-64
2022/01/13 06:31:13;;;;;;;103.82;25.58;;;;;;;1.24;100.00;104023.28;5116476;28;20023;-67
2022/01/13 06:33:39;;;;;;;94.32;26.42;;;;;;;1.28;100.00;104026.19;5116734;28;20027;-64
2022/01/13 06:36:04;;;;;;;108.25;27.13;;;;;;;1.19;100.00;103998.84;5116224;28;20376;-65
2022/01/13 06:38:30;;;;;;;124.40;27.33;;;;;;;1.32;100.00;104019.59;5116059;28;20035;-65
2022/01/13 06:40:56;;;;;;;102.22;26.92;;;;;;;1.34;100.00;104023.19;5116020;28;20064;-67
2022/01/13 06:43:21;;;;;;;96.32;25.13;;;;;;;1.37;100.00;104020.84;5116091;28;20031;-66
2022/01/13 06:45:47;;;;;;;114.60;26.13;;;;;;;1.33;100.00;104024.88;5116296;28;20139;-64
2022/01/13 06:48:12;;;;;;;99.93;25.38;;;;;;;1.34;100.00;104025.78;5115956;28;20035;-64
2022/01/13 06:50:37;;;;;;;91.35;24.05;;;;;;;1.34;100.00;104025.78;5114899;28;20028;-65
2022/01/13 06:53:03;;;;;;;87.20;26.15;;;;;;;1.38;100.00;104043.28;5116136;28;20392;-64
2022/01/13 06:55:28;;;;;;;97.93;24.48;;;;;;;1.43;100.00;104039.34;5115599;28;20124;-64
2022/01/13 06:57:53;;;;;;;75.18;23.92;;;;;;;1.41;100.00;104033.16;5115720;28;20031;-64
2022/01/13 07:00:20;;;;;;;93.45;23.95;;;;;;;1.41;100.00;104033.16;5115914;28;20141;-64
2022/01/13 07:02:45;;;;;;;81.43;23.20;;;;;;;1.43;100.00;104036.78;5115756;28;20027;-62
2022/01/13 07:05:11;;;;;;;91.10;22.83;;;;;;;1.39;100.00;104042.47;5115529;28;20049;-62
2022/01/13 07:07:39;;;;;;;88.63;23.58;;;;;;;1.43;100.00;104034.19;5115141;28;20024;-63
2022/01/13 07:10:06;;;;;;;86.40;23.15;;;;;;;1.45;100.00;104035.22;5112192;28;20085;-65
2022/01/13 07:12:32;;;;;;;97.70;23.80;;;;;;;1.46;100.00;104028.38;5115313;28;20044;-63
2022/01/13 07:14:57;;;;;;;105.15;20.65;;;;;;;1.52;100.00;104027.16;5115651;28;20051;-63
2022/01/13 07:17:23;;;;;;;94.57;22.15;;;;;;;1.42;100.00;104027.22;5115701;28;20039;-65
2022/01/13 07:19:51;;;;;;;80.90;23.45;;;;;;;1.45;100.00;104031.72;5114869;28;20435;-64
2022/01/13 07:22:17;;;;;;;101.25;23.55;;;;;;;1.40;100.00;104036.53;5097249;28;20028;-64
2022/01/13 07:24:42;;;;;;;97.13;24.13;;;;;;;1.39;100.00;104038.22;5115382;28;20370;-63
2022/01/13 07:27:08;;;;;;;107.20;23.92;;;;;;;1.42;100.00;104041.81;5115556;28;20103;-64
2022/01/13 07:29:33;;;;;;;104.68;24.50;;;;;;;1.40;100.00;104037.44;5115232;28;20050;-65
2022/01/13 07:31:59;;;;;;;105.50;23.75;;;;;;;1.40;100.00;104034.84;5115453;28;20031;-64
2022/01/13 07:34:24;;;;;;;81.60;23.48;;;;;;;1.44;100.00;104040.25;5108557;28;20043;-59
2022/01/13 07:36:49;;;;;;;83.03;23.73;;;;;;;1.48;100.00;104042.28;5112283;28;20172;-64
2022/01/13 07:39:14;;;;;;;92.35;24.00;;;;;;;1.45;100.00;104037.78;5102069;28;20051;-64
2022/01/13 07:41:42;;;;;;;88.40;23.45;;;;;;;1.46;100.00;104036.09;5105047;28;20036;-67
2022/01/13 07:44:07;;;;;;;76.88;23.85;;;;;;;1.49;100.00;104034.66;5097646;28;20096;-64
2022/01/13 07:46:33;;;;;;;82.03;23.52;;;;;;;1.52;100.00;104034.00;5104819;28;20115;-64
2022/01/13 07:48:58;;;;;;;70.55;23.25;;;;;;;1.55;100.00;104036.81;5103215;28;20093;-65
2022/01/13 07:51:24;;;;;;;74.43;22.13;;;;;;;1.55;100.00;104037.72;5098629;28;20073;-64
2022/01/13 07:53:49;;;;;;;109.57;23.33;;;;;;;1.52;100.00;104036.56;5094554;28;20032;-62
2022/01/13 07:56:14;;;;;;;77.20;23.10;;;;;;;1.57;100.00;104042.94;5094322;28;20024;-63
2022/01/13 07:58:41;;;;;;;77.90;21.30;;;;;;;1.61;100.00;104048.47;5095371;28;20465;-63
2022/01/13 08:01:07;;;;;;;85.82;23.42;;;;;;;1.63;100.00;104048.59;5094282;28;20177;-65
2022/01/13 08:03:34;;;;;;;81.10;22.83;;;;;;;1.63;100.00;104049.47;5113403;28;20059;-64
2022/01/13 08:06:01;;;;;;;72.78;21.58;;;;;;;1.64;100.00;104050.38;5111250;28;20393;-63
2022/01/13 08:08:26;;;;;;;83.10;22.05;;;;;;;1.61;100.00;104038.16;5102067;28;20036;-64
2022/01/13 08:10:51;;;;;;;72.53;21.77;;;;;;;1.70;100.00;104051.75;5112231;28;20038;-63
2022/01/13 08:13:17;;;;;;;73.75;20.42;;;;;;;1.69;100.00;104043.88;5100552;28;20020;-64
2022/01/13 08:15:43;;;;;;;80.70;21.55;;;;;;;1.66;100.00;104041.97;5106436;28;20115;-63
2022/01/13 08:20:53;;;;;;;57.88;21.52;;;;;;;1.69;100.00;104059.38;5117488;28;20486;-64
2022/01/13 08:23:18;;;;;;;71.45;23.00;;;;;;;1.68;100.00;104061.06;5118758;28;20032;-64
2022/01/13 08:25:43;;;;;;;57.10;21.48;;;;;;;1.72;100.00;104055.34;5100820;28;20024;-64
2022/01/13 08:28:11;;;;;;;63.35;21.02;;;;;;;1.73;100.00;104054.53;5097900;28;20359;-64
2022/01/13 08:30:37;;;;;;;75.85;22.73;;;;;;;1.78;100.00;104065.19;5097613;28;20070;-65
2022/01/13 08:33:02;;;;;;;94.55;21.73;;;;;;;1.74;100.00;104068.34;5097582;28;20431;-62
2022/01/13 08:35:27;;;;;;;80.00;21.80;;;;;;;1.76;100.00;104071.94;5097039;28;20043;-66
2022/01/13 08:37:53;;;;;;;75.90;22.45;;;;;;;1.77;100.00;104072.84;5097380;28;20042;-63
2022/01/13 08:40:18;;;;;;;67.75;21.80;;;;;;;1.77;100.00;104062.50;5097885;28;20419;-66
2022/01/13 08:42:44;;;;;;;77.18;21.77;;;;;;;1.81;100.00;104060.28;5097329;28;20046;-63
2022/01/13 08:45:12;;;;;;;68.05;21.55;;;;;;;1.84;100.00;104062.19;5097415;28;20428;-65
2022/01/13 08:47:37;;;;;;;71.88;22.13;;;;;;;1.89;100.00;104071.19;5097017;28;20032;-63
2022/01/13 08:50:06;;;;;;;65.45;21.95;;;;;;;1.87;100.00;104073.66;5097014;28;20359;-63
2022/01/13 08:52:33;;;;;;;85.53;21.88;;;;;;;1.89;100.00;104076.34;5097321;28;20062;-64
2022/01/13 08:54:59;;;;;;;97.85;23.52;;;;;;;1.90;100.00;104081.63;5097488;28;20028;-63
2022/01/13 08:57:24;;;;;;;90.15;21.95;;;;;;;1.91;100.00;104080.81;5097243;28;20039;-62
2022/01/13 08:59:50;;;;;;;80.63;22.77;;;;;;;1.91;100.00;104077.31;5096964;28;20028;-63
2022/01/13 09:02:15;;;;;;;68.20;23.17;;;;;;;1.95;100.00;104084.53;5105059;28;20097;-64
2022/01/13 09:04:40;;;;;;;89.60;22.52;;;;;;;1.93;100.00;104091.25;5106317;28;20028;-64
2022/01/13 09:07:06;;;;;;;79.30;21.67;;;;;;;1.96;100.00;104086.31;5108168;28;20035;-65
2022/01/13 09:09:31;;;;;;;66.45;21.50;;;;;;;1.98;100.00;104092.50;5107447;28;20028;-66
2022/01/13 09:11:57;;;;;;;81.28;21.65;;;;;;;2.03;100.00;104089.47;5106354;28;20073;-64
2022/01/13 09:14:25;;;;;;;68.80;21.77;;;;;;;1.98;100.00;104080.50;5107177;28;20340;-66
2022/01/13 09:16:52;;;;;;;73.68;21.60;;;;;;;2.04;100.00;104083.53;5105415;28;20024;-65
2022/01/13 09:19:19;;;;;;;86.75;21.88;;;;;;;2.03;100.00;104089.47;5105396;28;20041;-62
2022/01/13 09:21:47;;;;;;;72.15;21.13;;;;;;;2.03;100.00;104096.34;5096539;28;20028;-64
2022/01/13 09:24:15;;;;;;;74.25;22.02;;;;;;;2.05;100.00;104102.50;5099411;28;20070;-64
2022/01/13 09:26:42;;;;;;;77.40;22.05;;;;;;;2.09;100.00;104095.06;5090453;28;20020;-62
2022/01/13 09:29:08;;;;;;;90.43;22.13;;;;;;;2.07;100.00;104101.84;5105882;28;20105;-63
2022/01/13 09:31:35;;;;;;;97.47;21.38;;;;;;;2.06;100.00;104096.56;5105784;28;20122;-65
2022/01/13 09:34:02;;;;;;;74.20;21.38;;;;;;;2.12;100.00;104104.75;5107350;28;20103;-63
2022/01/13 09:36:31;;;;;;;69.50;21.70;;;;;;;2.13;100.00;104097.88;5105785;28;20111;-62
2022/01/13 09:38:58;;;;;;;83.10;21.98;;;;;;;2.15;100.00;104107.56;5102905;28;20127;-63
2022/01/13 09:41:27;;;;;;;83.53;20.83;;;;;;;2.17;100.00;104108.56;5096539;28;20028;-63
2022/01/13 09:43:52;;;;;;;65.72;21.52;;;;;;;2.10;100.00;104098.56;5096027;28;20098;-65
2022/01/13 09:46:18;;;;;;;73.95;21.63;;;;;;;2.13;100.00;104095.31;5096117;28;20060;-62
2022/01/13 09:48:44;;;;;;;83.03;21.88;;;;;;;2.12;100.00;104086.66;5096218;28;20349;-63
2022/01/13 09:51:10;;;;;;;75.97;20.95;;;;;;;2.19;100.00;104096.66;5096170;28;20138;-63
2022/01/13 09:53:37;;;;;;;68.10;21.05;;;;;;;2.21;100.00;104105.44;5104060;28;20411;-62
2022/01/13 09:56:04;;;;;;;75.40;21.80;;;;;;;2.23;100.00;104098.69;5105552;28;20351;-63
2022/01/13 09:58:29;;;;;;;104.70;22.30;;;;;;;2.26;100.00;104098.88;5105120;28;20051;-64
2022/01/13 10:00:56;;;;;;;76.68;21.42;;;;;;;2.38;100.00;104096.31;5109676;28;20100;-63
2022/01/13 10:03:25;;;;;;;60.65;20.65;;;;;;;2.28;100.00;104097.31;5095782;28;20046;-64
2022/01/13 10:05:57;;;;;;;71.70;20.08;;;;;;;2.33;100.00;104095.06;5095932;28;20027;-65
2022/01/13 10:08:39;;;;;;;64.55;20.63;;;;;;;2.37;100.00;104102.28;5098491;28;20035;-64
2022/01/13 10:11:27;;;;;;;73.95;19.88;;;;;;;2.40;100.00;104095.63;5102254;28;20343;-63
2022/01/13 10:16:22;;;;;;;90.93;21.20;;;;;;;2.43;100.00;104100.09;5116310;28;20044;-65
2022/01/13 10:17:05;;;;;;;59.17;20.35;;;;;;;2.41;100.00;104088.78;5094599;28;20028;-64
2022/01/13 10:19:50;;;;;;;77.70;19.52;;;;;;;2.54;100.00;104101.78;5095591;28;20059;-69
2022/01/13 10:22:25;;;;;;;76.18;19.27;;;;;;;2.48;100.00;104093.59;5095361;28;20063;-67
2022/01/13 10:24:53;;;;;;;66.68;19.15;;;;;;;2.48;100.00;104096.16;5095289;28;20020;-66
2022/01/13 10:27:21;;;;;;;62.25;20.58;;;;;;;2.53;100.00;104089.66;5095400;28;20028;-66
2022/01/13 10:29:50;;;;;;;84.55;20.92;;;;;;;2.58;100.00;104088.31;5095345;28;20089;-67
2022/01/13 10:32:24;;;;;;;69.13;18.92;;;;;;;2.44;100.00;104079.53;5095471;28;20048;-64
2022/01/13 10:34:58;;;;;;;61.30;20.13;;;;;;;2.53;100.00;104093.94;5095200;28;20086;-66
2022/01/13 10:37:41;;;;;;;71.47;19.25;;;;;;;2.63;100.00;104094.69;5095053;28;20378;-64
2022/01/13 10:40:24;;;;;;;60.88;20.13;;;;;;;2.56;100.00;104107.06;5095065;28;20439;-66
2022/01/13 10:45:39;;;;;;;64.00;18.25;;;;;;;2.52;100.00;104094.72;5095074;28;20043;-63
2022/01/13 10:48:26;;;;;;;63.65;19.13;;;;;;;2.55;100.00;104095.84;5105017;28;20065;-64
2022/01/13 10:51:04;;;;;;;55.22;19.20;;;;;;;2.53;100.00;104094.81;5095729;28;20457;-64
2022/01/13 10:53:37;;;;;;;58.45;19.77;;;;;;;2.64;100.00;104103.34;5095111;28;20048;-60
2022/01/13 10:56:11;;;;;;;58.55;19.00;;;;;;;2.64;100.00;104093.00;5095088;28;20044;-64
2022/01/13 10:58:48;;;;;;;55.15;18.85;;;;;;;2.70;100.00;104099.50;5096675;28;20122;-63
2022/01/13 11:01:15;;;;;;;67.20;19.88;;;;;;;2.73;100.00;104080.72;5094155;28;20114;-64
2022/01/13 11:03:42;;;;;;;68.22;19.67;;;;;;;2.75;100.00;104067.13;5100379;28;20036;-62
2022/01/13 11:06:10;;;;;;;61.65;19.33;;;;;;;2.70;100.00;104067.59;5104575;28;20058;-62
2022/01/13 11:08:46;;;;;;;59.38;18.90;;;;;;;2.72;100.00;104071.19;5105481;28;20040;-62
2022/01/13 11:11:21;;;;;;;56.35;19.20;;;;;;;2.71;100.00;104066.78;5114945;28;20031;-65
2022/01/13 11:13:53;;;;;;;50.90;17.88;;;;;;;2.70;100.00;104063.31;5114960;28;20067;-64
2022/01/13 11:16:19;;;;;;;53.88;18.30;;;;;;;2.76;100.00;104062.84;5115176;28;20034;-63
2022/01/13 11:18:44;;;;;;;57.35;18.58;;;;;;;2.72;100.00;104058.25;5115278;28;20035;-64
2022/01/13 11:21:09;;;;;;;65.15;17.65;;;;;;;2.75;100.00;104053.28;5099094;28;20028;-63
2022/01/13 11:23:37;;;;;;;57.35;18.95;;;;;;;2.67;100.00;104046.69;5112159;28;20054;-62
2022/01/13 11:26:04;;;;;;;59.28;19.45;;;;;;;2.69;100.00;104042.50;5108306;28;20043;-66
2022/01/13 11:28:29;;;;;;;52.95;17.67;;;;;;;2.67;100.00;104038.91;5094626;28;20028;-65
2022/01/13 11:30:54;;;;;;;57.60;18.77;;;;;;;2.73;100.00;104050.59;5094429;28;20335;-64